sensor_id;sensor_type;location;lat;lon;timestamp;pressure;altitude;pressure_sealevel;temperature;humidity
38718;BME280;24468;52.128;9.278;2022-08-03T00:01:42;100696.28;;;19.78;100.00
38718;BME280;24468;52.128;9.278;2022-08-03T00:04:09;100694.75;;;19.74;100.00
38718;BME280;24468;52.128;9.278;2022-08-03T00:06:36;100696.13;;;19.68;100.00
38718;BME280;24468;52.128;9.278;2022-08-03T00:09:03;100693.13;;;19.83;100.00
38718;BME280;24468;52.128;9.278;2022-08-03T00:11:29;100687.19;;;19.89;100.00
38718;BME280;24468;52.128;9.278;2022-08-03T00:13:55;100692.66;;;19.89;100.00
38718;BME280;24468;52.128;9.278;2022-08-03T00:16:20;100689.03;;;19.77;100.00
38718;BME280;24468;52.128;9.278;2022-08-03T00:18:46;100684.81;;;19.73;100.00
38718;BME280;24468;52.128;9.278;2022-08-03T00:21:11;100683.94;;;19.84;100.00
38718;BME280;24468;52.128;9.278;2022-08-03T00:23:37;100681.31;;;19.93;100.00
38718;BME280;24468;52.128;9.278;2022-08-03T00:26:02;100682.31;;;19.70;100.00
38718;BME280;24468;52.128;9.278;2022-08-03T00:28:28;100688.41;;;19.73;100.00
38718;BME280;24468;52.128;9.278;2022-08-03T00:30:54;100693.09;;;19.49;100.00
38718;BME280;24468;52.128;9.278;2022-08-03T00:33:22;100684.50;;;19.42;100.00
38718;BME280;24468;52.128;9.278;2022-08-03T00:35:48;100682.66;;;19.54;100.00
38718;BME280;24468;52.128;9.278;2022-08-03T00:38:13;100682.53;;;19.55;100.00
38718;BME280;24468;52.128;9.278;2022-08-03T00:40:39;100687.00;;;19.57;100.00
38718;BME280;24468;52.128;9.278;2022-08-03T00:43:07;100678.44;;;19.50;100.00
38718;BME280;24468;52.128;9.278;2022-08-03T00:45:39;100688.47;;;19.49;100.00
38718;BME280;24468;52.128;9.278;2022-08-03T00:48:06;100685.72;;;19.38;100.00
38718;BME280;24468;52.128;9.278;2022-08-03T00:50:35;100688.34;;;19.40;100.00
38718;BME280;24468;52.128;9.278;2022-08-03T00:53:03;100685.00;;;19.47;100.00
38718;BME280;24468;52.128;9.278;2022-08-03T00:55:29;100681.09;;;19.27;100.00
38718;BME280;24468;52.128;9.278;2022-08-03T00:57:55;100685.00;;;19.47;100.00
38718;BME280;24468;52.128;9.278;2022-08-03T01:00:24;100681.00;;;19.40;100.00
38718;BME280;24468;52.128;9.278;2022-08-03T01:02:51;100679.63;;;19.35;100.00
38718;BME280;24468;52.128;9.278;2022-08-03T01:05:18;100670.19;;;19.39;100.00
38718;BME280;24468;52.128;9.278;2022-08-03T01:08:18;100675.78;;;19.37;100.00
38718;BME280;24468;52.128;9.278;2022-08-03T01:11:16;100683.59;;;19.30;100.00
38718;BME280;24468;52.128;9.278;2022-08-03T01:16:54;100681.50;;;19.34;100.00
38718;BME280;24468;52.128;9.278;2022-08-03T01:23:05;100678.78;;;19.34;100.00
38718;BME280;24468;52.128;9.278;2022-08-03T01:25:39;100676.75;;;19.25;100.00
38718;BME280;24468;52.128;9.278;2022-08-03T01:30:49;100677.38;;;19.28;100.00
38718;BME280;24468;52.128;9.278;2022-08-03T01:33:31;100679.59;;;19.12;100.00
38718;BME280;24468;52.128;9.278;2022-08-03T01:36:04;100671.47;;;19.10;100.00
38718;BME280;24468;52.128;9.278;2022-08-03T01:38:34;100680.69;;;19.09;100.00
38718;BME280;24468;52.128;9.278;2022-08-03T01:41:07;100679.16;;;19.05;100.00
38718;BME280;24468;52.128;9.278;2022-08-03T01:43:36;100680.31;;;19.14;100.00
38718;BME280;24468;52.128;9.278;2022-08-03T01:46:05;100672.25;;;19.13;100.00
38718;BME280;24468;52.128;9.278;2022-08-03T01:48:32;100671.22;;;19.02;100.00
38718;BME280;24468;52.128;9.278;2022-08-03T01:50:59;100680.09;;;19.17;100.00
38718;BME280;24468;52.128;9.278;2022-08-03T01:53:25;100681.34;;;19.24;100.00
38718;BME280;24468;52.128;9.278;2022-08-03T01:55:54;100668.56;;;19.36;100.00
38718;BME280;24468;52.128;9.278;2022-08-03T01:58:23;100680.00;;;19.30;100.00
38718;BME280;24468;52.128;9.278;2022-08-03T02:00:50;100672.78;;;19.29;100.00
38718;BME280;24468;52.128;9.278;2022-08-03T02:03:18;100664.25;;;19.45;100.00
38718;BME280;24468;52.128;9.278;2022-08-03T02:05:46;100667.75;;;19.58;100.00
38718;BME280;24468;52.128;9.278;2022-08-03T02:08:14;100659.91;;;19.65;100.00
38718;BME280;24468;52.128;9.278;2022-08-03T02:10:42;100666.03;;;19.68;100.00
38718;BME280;24468;52.128;9.278;2022-08-03T02:13:11;100674.38;;;19.89;100.00
38718;BME280;24468;52.128;9.278;2022-08-03T02:15:40;100667.84;;;20.13;100.00
38718;BME280;24468;52.128;9.278;2022-08-03T02:18:08;100666.72;;;20.15;100.00
38718;BME280;24468;52.128;9.278;2022-08-03T02:20:37;100670.06;;;20.41;100.00
38718;BME280;24468;52.128;9.278;2022-08-03T02:23:03;100652.88;;;20.39;100.00
38718;BME280;24468;52.128;9.278;2022-08-03T02:25:32;100666.19;;;20.44;100.00
38718;BME280;24468;52.128;9.278;2022-08-03T02:28:10;100659.06;;;20.53;100.00
38718;BME280;24468;52.128;9.278;2022-08-03T02:30:38;100655.09;;;20.46;100.00
38718;BME280;24468;52.128;9.278;2022-08-03T02:33:11;100657.81;;;20.46;100.00
38718;BME280;24468;52.128;9.278;2022-08-03T02:35:39;100644.88;;;20.48;100.00
38718;BME280;24468;52.128;9.278;2022-08-03T02:38:07;100656.44;;;20.51;100.00
38718;BME280;24468;52.128;9.278;2022-08-03T02:40:35;100647.34;;;20.51;100.00
38718;BME280;24468;52.128;9.278;2022-08-03T02:43:06;100651.88;;;20.40;100.00
38718;BME280;24468;52.128;9.278;2022-08-03T02:45:35;100647.66;;;20.36;100.00
38718;BME280;24468;52.128;9.278;2022-08-03T02:48:06;100644.78;;;20.38;100.00
38718;BME280;24468;52.128;9.278;2022-08-03T02:50:33;100651.16;;;20.27;100.00
38718;BME280;24468;52.128;9.278;2022-08-03T02:53:00;100650.53;;;20.24;100.00
38718;BME280;24468;52.128;9.278;2022-08-03T02:55:28;100641.03;;;20.39;100.00
38718;BME280;24468;52.128;9.278;2022-08-03T02:57:55;100642.41;;;20.44;100.00
38718;BME280;24468;52.128;9.278;2022-08-03T03:00:22;100644.28;;;20.44;100.00
38718;BME280;24468;52.128;9.278;2022-08-03T03:02:48;100644.28;;;20.44;100.00
38718;BME280;24468;52.128;9.278;2022-08-03T03:05:14;100646.19;;;20.32;100.00
38718;BME280;24468;52.128;9.278;2022-08-03T03:07:41;100645.66;;;20.38;100.00
38718;BME280;24468;52.128;9.278;2022-08-03T03:10:08;100650.00;;;20.41;100.00
38718;BME280;24468;52.128;9.278;2022-08-03T03:12:36;100651.63;;;20.43;100.00
38718;BME280;24468;52.128;9.278;2022-08-03T03:15:04;100644.91;;;20.36;100.00
38718;BME280;24468;52.128;9.278;2022-08-03T03:17:33;100646.25;;;20.42;100.00
38718;BME280;24468;52.128;9.278;2022-08-03T03:19:59;100650.97;;;20.51;100.00
38718;BME280;24468;52.128;9.278;2022-08-03T03:22:26;100649.75;;;20.44;100.00
38718;BME280;24468;52.128;9.278;2022-08-03T03:24:52;100657.22;;;20.42;100.00
38718;BME280;24468;52.128;9.278;2022-08-03T03:27:19;100653.75;;;20.29;100.00
38718;BME280;24468;52.128;9.278;2022-08-03T03:29:46;100653.69;;;20.19;100.00
38718;BME280;24468;52.128;9.278;2022-08-03T03:32:12;100657.53;;;20.16;100.00
38718;BME280;24468;52.128;9.278;2022-08-03T03:34:38;100655.16;;;20.23;100.00
38718;BME280;24468;52.128;9.278;2022-08-03T03:37:03;100651.06;;;20.17;100.00
38718;BME280;24468;52.128;9.278;2022-08-03T03:39:30;100641.47;;;20.12;100.00
38718;BME280;24468;52.128;9.278;2022-08-03T03:41:56;100655.69;;;20.06;100.00
38718;BME280;24468;52.128;9.278;2022-08-03T03:44:29;100646.94;;;20.12;100.00
38718;BME280;24468;52.128;9.278;2022-08-03T03:46:56;100650.19;;;20.17;100.00
38718;BME280;24468;52.128;9.278;2022-08-03T03:49:22;100650.69;;;20.22;100.00
38718;BME280;24468;52.128;9.278;2022-08-03T03:51:52;100648.69;;;20.24;100.00
38718;BME280;24468;52.128;9.278;2022-08-03T03:54:18;100653.38;;;20.33;100.00
38718;BME280;24468;52.128;9.278;2022-08-03T03:56:43;100653.50;;;20.32;100.00
38718;BME280;24468;52.128;9.278;2022-08-03T03:59:09;100645.28;;;20.32;100.00
38718;BME280;24468;52.128;9.278;2022-08-03T04:01:35;100658.00;;;20.33;100.00
38718;BME280;24468;52.128;9.278;2022-08-03T04:04:00;100654.00;;;20.37;100.00
38718;BME280;24468;52.128;9.278;2022-08-03T04:06:46;100651.00;;;20.40;100.00
38718;BME280;24468;52.128;9.278;2022-08-03T04:09:31;100655.00;;;20.36;100.00
38718;BME280;24468;52.128;9.278;2022-08-03T04:12:18;100657.84;;;20.34;100.00
38718;BME280;24468;52.128;9.278;2022-08-03T04:14:47;100661.47;;;20.35;100.00
38718;BME280;24468;52.128;9.278;2022-08-03T04:17:14;100661.69;;;20.43;100.00
38718;BME280;24468;52.128;9.278;2022-08-03T04:19:49;100668.44;;;20.39;100.00
38718;BME280;24468;52.128;9.278;2022-08-03T04:22:21;100661.84;;;20.41;100.00
38718;BME280;24468;52.128;9.278;2022-08-03T04:24:59;100657.44;;;20.50;100.00
38718;BME280;24468;52.128;9.278;2022-08-03T04:27:30;100658.94;;;20.65;100.00
38718;BME280;24468;52.128;9.278;2022-08-03T04:29:58;100660.41;;;20.70;100.00
38718;BME280;24468;52.128;9.278;2022-08-03T04:32:27;100665.34;;;20.76;100.00
38718;BME280;24468;52.128;9.278;2022-08-03T04:34:54;100669.31;;;20.83;100.00
38718;BME280;24468;52.128;9.278;2022-08-03T04:37:42;100679.69;;;20.79;100.00
38718;BME280;24468;52.128;9.278;2022-08-03T04:40:18;100674.22;;;20.79;100.00
38718;BME280;24468;52.128;9.278;2022-08-03T04:42:46;100675.16;;;20.90;100.00
38718;BME280;24468;52.128;9.278;2022-08-03T04:45:14;100681.41;;;21.13;100.00
38718;BME280;24468;52.128;9.278;2022-08-03T04:47:41;100679.44;;;21.03;100.00
38718;BME280;24468;52.128;9.278;2022-08-03T04:50:07;100681.47;;;21.01;100.00
38718;BME280;24468;52.128;9.278;2022-08-03T04:52:34;100686.09;;;21.01;100.00
38718;BME280;24468;52.128;9.278;2022-08-03T04:55:00;100688.25;;;21.18;100.00
38718;BME280;24468;52.128;9.278;2022-08-03T04:57:26;100681.53;;;21.11;100.00
38718;BME280;24468;52.128;9.278;2022-08-03T04:59:52;100689.97;;;21.19;100.00
38718;BME280;24468;52.128;9.278;2022-08-03T05:02:22;100686.38;;;21.19;100.00
38718;BME280;24468;52.128;9.278;2022-08-03T05:04:48;100690.41;;;21.03;100.00
38718;BME280;24468;52.128;9.278;2022-08-03T05:07:15;100684.03;;;21.35;100.00
38718;BME280;24468;52.128;9.278;2022-08-03T05:09:42;100688.00;;;21.42;100.00
38718;BME280;24468;52.128;9.278;2022-08-03T05:12:07;100680.75;;;21.20;100.00
38718;BME280;24468;52.128;9.278;2022-08-03T05:14:33;100686.13;;;21.43;100.00
38718;BME280;24468;52.128;9.278;2022-08-03T05:17:02;100684.84;;;21.26;100.00
38718;BME280;24468;52.128;9.278;2022-08-03T05:19:27;100682.69;;;21.29;100.00
38718;BME280;24468;52.128;9.278;2022-08-03T05:21:53;100683.13;;;21.14;100.00
38718;BME280;24468;52.128;9.278;2022-08-03T05:24:19;100686.91;;;21.13;100.00
38718;BME280;24468;52.128;9.278;2022-08-03T05:26:44;100679.16;;;21.18;100.00
38718;BME280;24468;52.128;9.278;2022-08-03T05:29:10;100678.47;;;21.25;100.00
38718;BME280;24468;52.128;9.278;2022-08-03T05:31:35;100674.78;;;21.36;100.00
38718;BME280;24468;52.128;9.278;2022-08-03T05:34:01;100681.22;;;21.46;100.00
38718;BME280;24468;52.128;9.278;2022-08-03T05:36:26;100683.03;;;21.57;100.00
38718;BME280;24468;52.128;9.278;2022-08-03T05:38:52;100680.56;;;21.85;100.00
38718;BME280;24468;52.128;9.278;2022-08-03T05:41:18;100672.97;;;21.98;100.00
38718;BME280;24468;52.128;9.278;2022-08-03T05:43:44;100677.28;;;21.91;100.00
38718;BME280;24468;52.128;9.278;2022-08-03T05:46:10;100672.09;;;21.97;100.00
38718;BME280;24468;52.128;9.278;2022-08-03T05:48:35;100675.50;;;22.11;100.00
38718;BME280;24468;52.128;9.278;2022-08-03T05:51:01;100666.63;;;22.07;100.00
38718;BME280;24468;52.128;9.278;2022-08-03T05:53:26;100664.88;;;22.27;100.00
38718;BME280;24468;52.128;9.278;2022-08-03T05:55:54;100665.41;;;22.21;100.00
38718;BME280;24468;52.128;9.278;2022-08-03T05:58:20;100662.56;;;22.02;100.00
38718;BME280;24468;52.128;9.278;2022-08-03T06:00:45;100671.66;;;22.02;100.00
38718;BME280;24468;52.128;9.278;2022-08-03T06:03:11;100665.47;;;22.10;100.00
38718;BME280;24468;52.128;9.278;2022-08-03T06:05:36;100674.00;;;22.07;100.00
38718;BME280;24468;52.128;9.278;2022-08-03T06:08:03;100672.97;;;21.67;100.00
38718;BME280;24468;52.128;9.278;2022-08-03T06:10:30;100674.84;;;21.97;100.00
38718;BME280;24468;52.128;9.278;2022-08-03T06:12:55;100669.91;;;22.32;100.00
38718;BME280;24468;52.128;9.278;2022-08-03T06:15:21;100672.97;;;22.29;100.00
38718;BME280;24468;52.128;9.278;2022-08-03T06:17:48;100670.38;;;22.37;100.00
38718;BME280;24468;52.128;9.278;2022-08-03T06:20:19;100667.63;;;22.27;100.00
38718;BME280;24468;52.128;9.278;2022-08-03T06:22:46;100671.00;;;22.70;100.00
38718;BME280;24468;52.128;9.278;2022-08-03T06:25:12;100662.34;;;22.94;100.00
38718;BME280;24468;52.128;9.278;2022-08-03T06:27:38;100663.25;;;23.04;100.00
38718;BME280;24468;52.128;9.278;2022-08-03T06:30:09;100671.88;;;22.90;100.00
38718;BME280;24468;52.128;9.278;2022-08-03T06:32:39;100669.84;;;22.92;100.00
38718;BME280;24468;52.128;9.278;2022-08-03T06:35:06;100670.88;;;22.91;100.00
38718;BME280;24468;52.128;9.278;2022-08-03T06:37:43;100674.38;;;23.12;100.00
38718;BME280;24468;52.128;9.278;2022-08-03T06:40:12;100672.16;;;23.35;100.00
38718;BME280;24468;52.128;9.278;2022-08-03T06:42:38;100672.00;;;23.46;100.00
38718;BME280;24468;52.128;9.278;2022-08-03T06:45:05;100671.13;;;23.36;100.00
38718;BME280;24468;52.128;9.278;2022-08-03T06:47:31;100673.34;;;23.33;100.00
38718;BME280;24468;52.128;9.278;2022-08-03T06:49:56;100675.66;;;23.27;100.00
38718;BME280;24468;52.128;9.278;2022-08-03T06:52:22;100673.47;;;23.50;100.00
38718;BME280;24468;52.128;9.278;2022-08-03T06:54:47;100676.16;;;23.60;100.00
38718;BME280;24468;52.128;9.278;2022-08-03T06:57:13;100665.88;;;23.72;100.00
38718;BME280;24468;52.128;9.278;2022-08-03T06:59:40;100680.25;;;23.46;100.00
38718;BME280;24468;52.128;9.278;2022-08-03T07:02:08;100680.25;;;23.56;100.00
38718;BME280;24468;52.128;9.278;2022-08-03T07:04:34;100678.69;;;24.01;100.00
38718;BME280;24468;52.128;9.278;2022-08-03T07:07:00;100672.19;;;24.19;100.00
38718;BME280;24468;52.128;9.278;2022-08-03T07:09:26;100674.09;;;24.19;100.00
38718;BME280;24468;52.128;9.278;2022-08-03T07:11:52;100675.22;;;24.54;100.00
38718;BME280;24468;52.128;9.278;2022-08-03T07:14:18;100683.16;;;24.57;100.00
38718;BME280;24468;52.128;9.278;2022-08-03T07:16:44;100678.53;;;24.75;100.00
38718;BME280;24468;52.128;9.278;2022-08-03T07:19:09;100691.31;;;24.76;100.00
38718;BME280;24468;52.128;9.278;2022-08-03T07:21:35;100679.81;;;24.63;100.00
38718;BME280;24468;52.128;9.278;2022-08-03T07:24:00;100679.00;;;24.25;100.00
38718;BME280;24468;52.128;9.278;2022-08-03T07:26:26;100678.00;;;24.72;100.00
38718;BME280;24468;52.128;9.278;2022-08-03T07:28:51;100679.19;;;24.69;100.00
38718;BME280;24468;52.128;9.278;2022-08-03T07:31:17;100675.00;;;24.83;100.00
38718;BME280;24468;52.128;9.278;2022-08-03T07:33:42;100683.03;;;24.76;100.00
38718;BME280;24468;52.128;9.278;2022-08-03T07:36:08;100683.66;;;24.25;100.00
38718;BME280;24468;52.128;9.278;2022-08-03T07:38:34;100676.44;;;24.41;100.00
38718;BME280;24468;52.128;9.278;2022-08-03T07:41:01;100675.47;;;24.60;100.00
38718;BME280;24468;52.128;9.278;2022-08-03T07:43:26;100677.81;;;24.73;100.00
38718;BME280;24468;52.128;9.278;2022-08-03T07:45:52;100666.88;;;25.17;100.00
38718;BME280;24468;52.128;9.278;2022-08-03T07:48:18;100671.00;;;25.57;100.00
38718;BME280;24468;52.128;9.278;2022-08-03T07:50:43;100677.19;;;25.33;100.00
38718;BME280;24468;52.128;9.278;2022-08-03T07:53:09;100674.91;;;25.72;100.00
38718;BME280;24468;52.128;9.278;2022-08-03T07:55:34;100660.22;;;25.98;97.28
38718;BME280;24468;52.128;9.278;2022-08-03T07:58:09;100664.53;;;26.43;93.48
38718;BME280;24468;52.128;9.278;2022-08-03T08:00:37;100662.56;;;26.78;90.94
38718;BME280;24468;52.128;9.278;2022-08-03T08:03:04;100663.44;;;26.95;87.94
38718;BME280;24468;52.128;9.278;2022-08-03T08:05:30;100654.31;;;27.19;86.37
38718;BME280;24468;52.128;9.278;2022-08-03T08:07:55;100663.66;;;27.10;83.83
38718;BME280;24468;52.128;9.278;2022-08-03T08:10:21;100664.34;;;27.28;83.06
38718;BME280;24468;52.128;9.278;2022-08-03T08:12:47;100660.88;;;27.42;81.90
38718;BME280;24468;52.128;9.278;2022-08-03T08:15:13;100659.34;;;27.48;82.30
38718;BME280;24468;52.128;9.278;2022-08-03T08:17:44;100655.47;;;27.74;80.61
38718;BME280;24468;52.128;9.278;2022-08-03T08:20:15;100657.53;;;27.88;79.41
38718;BME280;24468;52.128;9.278;2022-08-03T08:22:41;100652.31;;;27.93;76.66
38718;BME280;24468;52.128;9.278;2022-08-03T08:25:07;100649.69;;;27.91;75.70
38718;BME280;24468;52.128;9.278;2022-08-03T08:27:32;100647.31;;;27.80;74.72
38718;BME280;24468;52.128;9.278;2022-08-03T08:29:58;100652.09;;;28.03;73.18
38718;BME280;24468;52.128;9.278;2022-08-03T08:32:23;100653.81;;;28.12;71.49
38718;BME280;24468;52.128;9.278;2022-08-03T08:34:49;100652.63;;;28.37;71.17
38718;BME280;24468;52.128;9.278;2022-08-03T08:37:15;100649.69;;;28.47;69.82
38718;BME280;24468;52.128;9.278;2022-08-03T08:39:40;100653.72;;;28.28;71.70
38718;BME280;24468;52.128;9.278;2022-08-03T08:42:06;100649.16;;;28.44;69.67
38718;BME280;24468;52.128;9.278;2022-08-03T08:44:31;100649.63;;;28.78;69.18
38718;BME280;24468;52.128;9.278;2022-08-03T08:47:01;100641.19;;;28.95;67.17
38718;BME280;24468;52.128;9.278;2022-08-03T08:49:28;100642.31;;;29.09;67.11
38718;BME280;24468;52.128;9.278;2022-08-03T08:51:54;100642.47;;;28.84;65.37
38718;BME280;24468;52.128;9.278;2022-08-03T08:54:22;100646.66;;;29.26;63.71
38718;BME280;24468;52.128;9.278;2022-08-03T08:56:49;100644.63;;;29.05;63.48
38718;BME280;24468;52.128;9.278;2022-08-03T08:59:16;100648.34;;;29.50;63.60
38718;BME280;24468;52.128;9.278;2022-08-03T09:01:42;100648.91;;;29.68;62.21
38718;BME280;24468;52.128;9.278;2022-08-03T09:04:08;100648.72;;;29.32;62.27
38718;BME280;24468;52.128;9.278;2022-08-03T09:06:34;100643.72;;;29.42;62.59
38718;BME280;24468;52.128;9.278;2022-08-03T09:09:00;100643.53;;;29.82;61.07
38718;BME280;24468;52.128;9.278;2022-08-03T09:11:25;100636.53;;;30.01;58.98
38718;BME280;24468;52.128;9.278;2022-08-03T09:13:51;100638.38;;;29.79;59.15
38718;BME280;24468;52.128;9.278;2022-08-03T09:16:20;100634.38;;;29.58;59.14
38718;BME280;24468;52.128;9.278;2022-08-03T09:18:49;100639.00;;;30.10;58.97
38718;BME280;24468;52.128;9.278;2022-08-03T09:21:23;100633.09;;;30.28;56.84
38718;BME280;24468;52.128;9.278;2022-08-03T09:23:52;100627.59;;;30.20;55.49
38718;BME280;24468;52.128;9.278;2022-08-03T09:26:29;100636.13;;;29.89;55.28
38718;BME280;24468;52.128;9.278;2022-08-03T09:29:09;100637.13;;;30.62;55.30
38718;BME280;24468;52.128;9.278;2022-08-03T09:31:39;100633.72;;;30.30;54.88
38718;BME280;24468;52.128;9.278;2022-08-03T09:34:07;100634.50;;;30.61;55.77
38718;BME280;24468;52.128;9.278;2022-08-03T09:36:47;100629.22;;;30.44;50.90
38718;BME280;24468;52.128;9.278;2022-08-03T09:39:21;100634.03;;;30.06;51.16
38718;BME280;24468;52.128;9.278;2022-08-03T09:44:36;100625.78;;;30.64;50.92
38718;BME280;24468;52.128;9.278;2022-08-03T09:47:04;100623.38;;;30.39;51.16
38718;BME280;24468;52.128;9.278;2022-08-03T09:49:30;100623.56;;;30.38;51.41
38718;BME280;24468;52.128;9.278;2022-08-03T09:52:00;100624.88;;;30.78;50.92
38718;BME280;24468;52.128;9.278;2022-08-03T09:54:31;100622.34;;;30.62;50.30
38718;BME280;24468;52.128;9.278;2022-08-03T09:56:57;100630.63;;;30.76;50.05
38718;BME280;24468;52.128;9.278;2022-08-03T09:59:26;100620.56;;;31.18;49.99
38718;BME280;24468;52.128;9.278;2022-08-03T10:01:52;100620.81;;;31.23;50.23
38718;BME280;24468;52.128;9.278;2022-08-03T10:04:18;100611.53;;;31.38;50.14
38718;BME280;24468;52.128;9.278;2022-08-03T10:06:59;100614.78;;;31.41;50.11
38718;BME280;24468;52.128;9.278;2022-08-03T10:09:25;100621.06;;;31.29;50.26
38718;BME280;24468;52.128;9.278;2022-08-03T10:11:51;100621.28;;;31.27;49.71
38718;BME280;24468;52.128;9.278;2022-08-03T10:14:17;100615.69;;;31.83;49.31
38718;BME280;24468;52.128;9.278;2022-08-03T10:16:48;100615.38;;;31.37;50.37
38718;BME280;24468;52.128;9.278;2022-08-03T10:19:14;100610.81;;;31.57;50.93
38718;BME280;24468;52.128;9.278;2022-08-03T10:21:46;100614.38;;;31.23;49.94
38718;BME280;24468;52.128;9.278;2022-08-03T10:24:17;100608.81;;;31.51;50.67
38718;BME280;24468;52.128;9.278;2022-08-03T10:26:45;100608.41;;;31.82;49.81
38718;BME280;24468;52.128;9.278;2022-08-03T10:29:20;100606.66;;;32.16;49.88
38718;BME280;24468;52.128;9.278;2022-08-03T10:31:47;100605.59;;;31.48;50.15
38718;BME280;24468;52.128;9.278;2022-08-03T10:34:21;100604.13;;;31.86;49.27
38718;BME280;24468;52.128;9.278;2022-08-03T10:36:49;100598.19;;;31.96;49.05
38718;BME280;24468;52.128;9.278;2022-08-03T10:39:20;100602.75;;;32.04;49.33
38718;BME280;24468;52.128;9.278;2022-08-03T10:41:47;100587.94;;;32.03;48.90
38718;BME280;24468;52.128;9.278;2022-08-03T10:44:18;100595.97;;;32.26;48.69
38718;BME280;24468;52.128;9.278;2022-08-03T10:46:46;100604.41;;;31.63;49.30
38718;BME280;24468;52.128;9.278;2022-08-03T10:49:18;100584.66;;;31.93;49.28
38718;BME280;24468;52.128;9.278;2022-08-03T10:51:45;100579.56;;;32.03;48.05
38718;BME280;24468;52.128;9.278;2022-08-03T10:57:02;100579.78;;;32.02;48.30
38718;BME280;24468;52.128;9.278;2022-08-03T11:02:13;100574.41;;;32.68;45.25
38718;BME280;24468;52.128;9.278;2022-08-03T11:04:40;100574.06;;;32.23;45.21
38718;BME280;24468;52.128;9.278;2022-08-03T11:09:43;100569.50;;;32.84;44.82
38718;BME280;24468;52.128;9.278;2022-08-03T11:12:30;100574.41;;;32.68;44.07
38718;BME280;24468;52.128;9.278;2022-08-03T11:14:59;100574.59;;;31.99;44.48
38718;BME280;24468;52.128;9.278;2022-08-03T11:17:24;100581.81;;;31.52;45.00
38718;BME280;24468;52.128;9.278;2022-08-03T11:19:52;100570.31;;;32.03;44.36
38718;BME280;24468;52.128;9.278;2022-08-03T11:22:19;100575.59;;;32.32;44.16
38718;BME280;24468;52.128;9.278;2022-08-03T11:27:17;100575.63;;;32.39;43.20
38718;BME280;24468;52.128;9.278;2022-08-03T11:30:09;100570.25;;;32.44;41.98
38718;BME280;24468;52.128;9.278;2022-08-03T11:35:25;100567.13;;;32.67;42.01
38718;BME280;24468;52.128;9.278;2022-08-03T11:43:53;100582.84;;;33.15;41.91
38718;BME280;24468;52.128;9.278;2022-08-03T11:46:11;100567.34;;;32.92;40.78
38718;BME280;24468;52.128;9.278;2022-08-03T11:48:48;100561.53;;;32.74;41.49
38718;BME280;24468;52.128;9.278;2022-08-03T11:54:02;100564.97;;;32.89;40.99
38718;BME280;24468;52.128;9.278;2022-08-03T11:56:46;100565.16;;;32.74;41.87
38718;BME280;24468;52.128;9.278;2022-08-03T11:59:12;100566.47;;;32.65;42.80
38718;BME280;24468;52.128;9.278;2022-08-03T12:01:38;100559.78;;;32.53;43.16
38718;BME280;24468;52.128;9.278;2022-08-03T12:04:05;100555.06;;;32.73;42.36
38718;BME280;24468;52.128;9.278;2022-08-03T12:06:31;100562.44;;;33.28;41.17
38718;BME280;24468;52.128;9.278;2022-08-03T12:09:19;100551.66;;;32.85;41.16
38718;BME280;24468;52.128;9.278;2022-08-03T12:11:50;100560.47;;;32.82;40.37
38718;BME280;24468;52.128;9.278;2022-08-03T12:14:17;100552.53;;;33.18;40.10
38718;BME280;24468;52.128;9.278;2022-08-03T12:16:47;100553.19;;;33.20;40.74
38718;BME280;24468;52.128;9.278;2022-08-03T12:19:13;100550.84;;;33.11;40.96
38718;BME280;24468;52.128;9.278;2022-08-03T12:21:47;100548.47;;;33.01;41.22
38718;BME280;24468;52.128;9.278;2022-08-03T12:24:13;100538.09;;;32.82;40.05
38718;BME280;24468;52.128;9.278;2022-08-03T12:26:48;100540.06;;;33.28;39.71
38718;BME280;24468;52.128;9.278;2022-08-03T12:29:21;100538.47;;;33.72;38.67
38718;BME280;24468;52.128;9.278;2022-08-03T12:31:48;100533.38;;;32.82;41.45
38718;BME280;24468;52.128;9.278;2022-08-03T12:34:14;100539.63;;;33.04;41.70
38718;BME280;24468;52.128;9.278;2022-08-03T12:36:52;100543.06;;;33.13;41.16
38718;BME280;24468;52.128;9.278;2022-08-03T12:39:23;100534.25;;;33.09;40.86
38718;BME280;24468;52.128;9.278;2022-08-03T12:41:53;100542.22;;;33.12;40.78
38718;BME280;24468;52.128;9.278;2022-08-03T12:44:32;100529.34;;;33.96;40.08
38718;BME280;24468;52.128;9.278;2022-08-03T12:47:00;100539.56;;;33.64;41.12
38718;BME280;24468;52.128;9.278;2022-08-03T12:49:27;100533.75;;;34.24;40.03
38718;BME280;24468;52.128;9.278;2022-08-03T12:54:21;100531.22;;;34.09;40.74
38718;BME280;24468;52.128;9.278;2022-08-03T12:57:08;100544.16;;;33.25;40.74
38718;BME280;24468;52.128;9.278;2022-08-03T12:59:40;100531.44;;;33.36;40.45
38718;BME280;24468;52.128;9.278;2022-08-03T13:02:20;100527.84;;;33.87;39.58
38718;BME280;24468;52.128;9.278;2022-08-03T13:04:48;100528.84;;;33.41;40.49
38718;BME280;24468;52.128;9.278;2022-08-03T13:07:16;100533.91;;;33.84;38.71
38718;BME280;24468;52.128;9.278;2022-08-03T13:09:52;100533.78;;;33.52;38.73
38718;BME280;24468;52.128;9.278;2022-08-03T13:12:23;100540.38;;;33.78;38.09
38718;BME280;24468;52.128;9.278;2022-08-03T13:14:52;100534.22;;;33.49;38.57
38718;BME280;24468;52.128;9.278;2022-08-03T13:17:19;100527.53;;;33.63;39.23
38718;BME280;24468;52.128;9.278;2022-08-03T13:19:46;100540.75;;;33.95;38.85
38718;BME280;24468;52.128;9.278;2022-08-03T13:22:20;100532.59;;;33.93;38.26
38718;BME280;24468;52.128;9.278;2022-08-03T13:24:50;100530.09;;;34.55;38.28
38718;BME280;24468;52.128;9.278;2022-08-03T13:27:16;100518.06;;;34.23;38.31